Terminal Aerodrome Forecast
Issued by NWS

Home | Current Version | Previous Version | Text Only | Print | Product List | Glossary On
Versions: 1 2 3 4 5 6 7 8 9 10 11 12 13 14
323
FTUS42 KMLB 252336
TAFSUA
TAF
KSUA 252336Z 2600/2624 14008KT P6SM FEW035
     FM260400 17005KT P6SM SKC
     FM261400 18008KT P6SM SCT035
     FM261800 12011KT P6SM FEW040=

USA.gov is the U.S. government's official web portal to all federal, state and local government web resources and services.